首页
METAR-TAF:

METAR-TAF

机场 :

Air Force Base

Langley, 弗吉尼亚州, 美国

纬度: 37-05N, 经度: 076-21W, 海拔: 3米

当前天气观测

该预报发布于6分钟前的14:11 UTC
风速4节,风向
温度 26°C
湿度 89%
气压 1017 hPa
能見度: 12.9公里
散云层高于1300英尺
多云层高于2000英尺
多云层高于2900英尺

METAR: KLFI 201411Z AUTO 10004KT 8SM SCT013 BKN020 BKN029 26/24 A3004 RMK AO2 SLP179 $

时间: 10:17 (14:17 UTC)

预报

该预报发布于3小时和27分钟前的10:50 UTC
预报有效从20日的 10点(UTC)到 21日的 15点(UTC)
风速6节,风向东北
能見度: 6000
多云层高于3000英尺
小阵雨
短暂存在
从 20日的 10点(UTC)到 20日的 13点(UTC)
风速10节,风向,有时为15节阵风
多云层高于2000英尺, 积雨云.
雷暴, 小雨
成为
从 20日的 13点(UTC)到 20日的 14点(UTC)
风速6节,风向东转东南
能见度10公里或以上
多云层高于2000英尺
成为
从 20日的 16点(UTC)到 20日的 17点(UTC)
风速6节,风向东转东南
能見度: 8000
多云层高于2000英尺
阴天层高于14000英尺
小阵雨
短暂存在
从 20日的 17点(UTC)到 20日的 22点(UTC)
风速10节,风向西南,有时为20节阵风
能見度: 6000
多云层高于2000英尺, 积雨云.
雷暴, 小雨
成为
从 21日的 00点(UTC)到 21日的 01点(UTC)
风速9节,风向南转西南
能见度10公里或以上
多云层高于2500英尺
成为
从 21日的 08点(UTC)到 21日的 09点(UTC)
风速6节,风向东转东南
能見度: 6000
多云层高于2000英尺
小阵雨

TAF: KLFI 201050Z 2010/2115 05006KT 6000 -SHRA BKN030 QNH2996INS TEMPO 2010/2013 08010G15KT -TSRA BKN020CB BECMG 2013/2014 11006KT 9999 NSW BKN020 QNH2999INS BECMG 2016/2017 11006KT 8000 -SHRA BKN020 OVC140 QNH2998INS TEMPO 2017/2022 23010G20KT 6000 -TSRA BKN020CB BECMG 2100/2101 21009KT 9999 NSW BKN025 QNH2997INS BECMG 2108/2109 11006KT 6000 -SHRA BKN020 QNH2996INS TX29/2018Z TN23/2010Z

超过4000个机场的气象观测和天气预报(METAR&TAF报告)。

可查询的气象台以黄色和红色小点在地图上表示。

将鼠标移到小点上方,可查看气象台名称。

然后点击查看天气观测和预报。

如需切换地图:点击带黑十字的绿色按钮放大地图;点击带横线的绿色按钮缩小地图;或者点击绿色箭头查看邻近地区的地图。


METAR-TAF: